Time;durP1;ratioP1;P1;durP2;ratioP2;P2;SDS_P1;SDS_P2;PMS_P1;PMS_P2;Temp;Humidity;BMP_temperature;BMP_pressure;BME280_temperature;BME280_humidity;BME280_pressure;Samples;Min_cycle;Max_cycle;Signal;HPM_P1;HPM_P2
2021/01/04 00:02:18;;;;;;;21.20;15.37;;;1.30;86.80;;;;;;5048527;28;20531;-84
2021/01/04 00:05:12;;;;;;;19.90;15.03;;;1.30;87.00;;;;;;5045890;28;20446;-83
2021/01/04 00:08:12;;;;;;;19.97;14.33;;;1.30;87.20;;;;;;5037150;28;20466;-84
2021/01/04 00:10:56;;;;;;;20.70;14.13;;;1.30;87.90;;;;;;5034506;28;20466;-86
2021/01/04 00:13:31;;;;;;;19.63;14.00;;;1.30;87.40;;;;;;5049517;28;20479;-84
2021/01/04 00:16:05;;;;;;;21.97;14.00;;;1.20;86.70;;;;;;5056288;28;20522;-83
2021/01/04 00:19:00;;;;;;;25.47;15.00;;;1.30;87.10;;;;;;5044404;28;20466;-83
2021/01/04 00:21:35;;;;;;;20.70;14.60;;;1.30;87.70;;;;;;5036522;28;20524;-83
2021/01/04 00:24:07;;;;;;;22.27;14.70;;;1.40;87.70;;;;;;5043471;28;20451;-84
2021/01/04 00:26:41;;;;;;;18.13;14.60;;;1.20;86.20;;;;;;5041622;28;20474;-84
2021/01/04 00:29:08;;;;;;;21.60;14.67;;;1.30;86.40;;;;;;5036702;28;20450;-86
2021/01/04 00:31:42;;;;;;;19.83;13.80;;;1.30;87.20;;;;;;5037975;28;20447;-85
2021/01/04 00:34:14;;;;;;;23.73;15.30;;;1.30;86.70;;;;;;5043860;28;20459;-85
2021/01/04 00:37:02;;;;;;;19.17;13.63;;;1.30;87.50;;;;;;5038503;28;20535;-84
2021/01/04 00:39:56;;;;;;;20.50;14.80;;;1.30;86.50;;;;;;5038862;28;20816;-83
2021/01/04 00:42:35;;;;;;;20.97;13.87;;;1.30;86.50;;;;;;5020299;28;20459;-83
2021/01/04 00:45:09;;;;;;;20.40;14.07;;;1.30;86.80;;;;;;5038720;28;20542;-83
2021/01/04 00:47:45;;;;;;;19.80;14.13;;;1.30;88.10;;;;;;5034052;28;20463;-85
2021/01/04 00:50:23;;;;;;;19.20;14.03;;;1.30;87.60;;;;;;5040090;28;20465;-83
2021/01/04 00:53:00;;;;;;;21.50;13.77;;;1.30;88.30;;;;;;5032792;28;20468;-87
2021/01/04 00:55:43;;;;;;;20.63;14.37;;;1.30;88.00;;;;;;5036635;28;20459;-85
2021/01/04 00:58:34;;;;;;;20.33;13.63;;;1.30;88.40;;;;;;5044441;28;20473;-84
2021/01/04 01:01:07;;;;;;;20.13;13.63;;;1.30;86.90;;;;;;5049204;28;20460;-83
2021/01/04 01:03:54;;;;;;;22.23;14.77;;;1.30;87.50;;;;;;5049031;28;20946;-83
2021/01/04 01:06:28;;;;;;;20.60;13.93;;;1.30;88.50;;;;;;5046667;28;20453;-83
2021/01/04 01:08:58;;;;;;;20.50;14.33;;;1.40;88.80;;;;;;5041231;28;20455;-83
2021/01/04 01:11:50;;;;;;;21.80;13.10;;;1.40;87.90;;;;;;5021919;28;20441;-84
2021/01/04 01:14:24;;;;;;;20.83;13.73;;;1.30;87.70;;;;;;5037003;28;20585;-85
2021/01/04 01:17:19;;;;;;;19.03;13.10;;;1.30;88.20;;;;;;5021215;28;20474;-84
2021/01/04 01:19:50;;;;;;;19.20;14.27;;;1.30;86.80;;;;;;5032065;28;20560;-83
2021/01/04 01:22:27;;;;;;;20.13;15.07;;;1.30;87.90;;;;;;5017927;28;20532;-84
2021/01/04 01:24:53;;;;;;;24.67;15.30;;;1.30;87.80;;;;;;5033530;28;20446;-86
2021/01/04 01:27:48;;;;;;;19.80;13.90;;;1.30;88.40;;;;;;5036434;28;20451;-86
2021/01/04 01:30:39;;;;;;;20.30;13.50;;;1.40;88.80;;;;;;5038913;28;20466;-84
2021/01/04 01:33:27;;;;;;;18.87;13.57;;;1.30;88.10;;;;;;5052756;28;21265;-84
2021/01/04 01:36:06;;;;;;;21.60;14.93;;;1.30;87.10;;;;;;5018410;28;20552;-85
2021/01/04 01:39:32;;;;;;;19.93;14.57;;;1.30;87.10;;;;;;5032324;28;21038;-84
2021/01/04 01:42:47;;;;;;;20.40;13.67;;;1.20;86.90;;;;;;4942532;28;20585;-86
2021/01/04 01:45:19;;;;;;;19.47;13.83;;;1.20;86.60;;;;;;4971596;28;20466;-83
2021/01/04 01:48:00;;;;;;;20.60;14.40;;;1.40;87.20;;;;;;5038005;28;20460;-85
2021/01/04 01:50:37;;;;;;;21.10;13.57;;;1.20;86.30;;;;;;5042091;28;20465;-86
2021/01/04 01:53:09;;;;;;;22.73;15.07;;;1.30;87.60;;;;;;5046796;28;20505;-84
2021/01/04 01:55:54;;;;;;;20.03;13.80;;;1.20;86.70;;;;;;5043580;28;20464;-85
2021/01/04 01:58:50;;;;;;;23.10;15.43;;;1.30;87.10;;;;;;5044467;28;20467;-84
2021/01/04 02:01:27;;;;;;;18.40;13.33;;;1.40;87.70;;;;;;5040897;28;20485;-84
2021/01/04 02:04:00;;;;;;;20.67;14.03;;;1.40;86.10;;;;;;5045117;28;20458;-83
2021/01/04 02:06:41;;;;;;;21.17;15.00;;;1.40;86.80;;;;;;5040302;28;20466;-81
2021/01/04 02:09:14;;;;;;;21.37;16.10;;;1.30;86.50;;;;;;5051403;28;20457;-87
2021/01/04 02:11:54;;;;;;;21.10;13.80;;;1.40;87.30;;;;;;5052340;28;20461;-88
2021/01/04 02:14:30;;;;;;;19.60;14.33;;;1.30;87.80;;;;;;5052380;28;20472;-88
2021/01/04 02:17:25;;;;;;;21.07;15.03;;;1.40;88.60;;;;;;5051035;28;20619;-88
2021/01/04 02:20:22;;;;;;;23.33;16.10;;;1.50;87.90;;;;;;5048476;28;20500;-89
2021/01/04 02:23:12;;;;;;;20.17;14.50;;;1.50;88.30;;;;;;5047903;28;20471;-84
2021/01/04 02:25:44;;;;;;;22.33;14.87;;;1.40;86.00;;;;;;5028801;28;20443;-84
2021/01/04 02:28:15;;;;;;;25.13;15.17;;;1.50;86.50;;;;;;5039306;28;20489;-82
2021/01/04 02:30:43;;;;;;;24.70;15.37;;;1.50;87.30;;;;;;5037715;28;20448;-83
2021/01/04 02:33:13;;;;;;;21.80;15.13;;;1.40;86.10;;;;;;5039276;28;20467;-83
2021/01/04 02:35:41;;;;;;;27.20;15.60;;;1.50;86.00;;;;;;5039047;28;20469;-83
2021/01/04 02:38:09;;;;;;;23.47;14.63;;;1.30;87.10;;;;;;5033051;28;20464;-85
2021/01/04 02:40:36;;;;;;;23.97;15.90;;;1.30;87.80;;;;;;5035499;28;20468;-84
2021/01/04 02:43:05;;;;;;;23.10;16.33;;;1.30;89.10;;;;;;5045375;28;20443;-85
2021/01/04 02:45:33;;;;;;;20.27;14.20;;;1.40;89.40;;;;;;5049593;28;20826;-84
2021/01/04 02:48:25;;;;;;;20.63;15.33;;;1.40;88.10;;;;;;5042719;28;20520;-81
2021/01/04 02:51:02;;;;;;;19.80;14.53;;;1.50;88.50;;;;;;5040699;28;21024;-82
2021/01/04 02:53:48;;;;;;;22.00;14.13;;;1.50;88.50;;;;;;5038598;28;20816;-83
2021/01/04 02:56:32;;;;;;;25.43;15.53;;;1.40;87.80;;;;;;5044816;28;20466;-82
2021/01/04 02:59:14;;;;;;;21.27;14.10;;;1.50;88.50;;;;;;5039177;28;20452;-84
2021/01/04 03:01:48;;;;;;;20.57;14.70;;;1.50;88.60;;;;;;5036571;28;20838;-82
2021/01/04 03:04:19;;;;;;;22.50;13.97;;;1.50;88.50;;;;;;5036448;28;20460;-82
2021/01/04 03:06:54;;;;;;;23.83;15.17;;;1.60;88.40;;;;;;5001986;28;20885;-82
2021/01/04 03:09:21;;;;;;;23.50;15.50;;;1.40;88.70;;;;;;5037979;28;20444;-82
2021/01/04 03:11:48;;;;;;;23.77;16.17;;;1.40;89.20;;;;;;5038513;28;20455;-84
2021/01/04 03:14:28;;;;;;;26.47;16.70;;;1.30;89.00;;;;;;5036462;28;20441;-82
2021/01/04 03:17:00;;;;;;;22.33;15.67;;;1.30;89.70;;;;;;5037575;28;20448;-83
2021/01/04 03:19:33;;;;;;;24.60;16.13;;;1.40;90.20;;;;;;5035429;28;20489;-82
2021/01/04 03:22:03;;;;;;;29.13;16.97;;;1.40;89.40;;;;;;5035250;28;20471;-82
2021/01/04 03:24:30;;;;;;;24.37;15.20;;;1.50;87.90;;;;;;5033475;28;20481;-82
2021/01/04 03:27:02;;;;;;;24.13;15.67;;;1.40;86.80;;;;;;5030778;28;20489;-83
2021/01/04 03:29:33;;;;;;;22.80;15.43;;;1.40;87.80;;;;;;5034793;28;20471;-82
2021/01/04 03:31:59;;;;;;;23.27;15.03;;;1.40;86.70;;;;;;5036430;28;20506;-84
2021/01/04 03:34:27;;;;;;;21.27;14.53;;;1.40;85.80;;;;;;5034850;28;20459;-82
2021/01/04 03:36:54;;;;;;;22.60;14.57;;;1.40;87.30;;;;;;5037812;28;20450;-84
2021/01/04 03:39:20;;;;;;;24.83;15.80;;;1.40;86.50;;;;;;5034182;28;20902;-85
2021/01/04 03:41:48;;;;;;;25.10;15.30;;;1.40;86.10;;;;;;5041674;28;20479;-85
2021/01/04 03:44:14;;;;;;;22.10;14.63;;;1.40;85.40;;;;;;5043277;28;20466;-84
2021/01/04 03:46:46;;;;;;;23.47;15.70;;;1.40;86.00;;;;;;5036933;28;20454;-83
2021/01/04 03:49:13;;;;;;;22.27;14.20;;;1.50;86.50;;;;;;5035043;28;21125;-83
2021/01/04 03:51:40;;;;;;;23.90;15.83;;;1.50;86.20;;;;;;5038694;28;20522;-82
2021/01/04 03:54:07;;;;;;;26.47;16.93;;;1.30;86.60;;;;;;5038724;28;20455;-82
2021/01/04 03:56:34;;;;;;;30.40;16.60;;;1.40;87.10;;;;;;5042781;28;20458;-83
2021/01/04 03:59:01;;;;;;;23.97;15.27;;;1.40;86.80;;;;;;5052609;28;20451;-85
2021/01/04 04:01:28;;;;;;;24.73;15.80;;;1.40;87.20;;;;;;5034531;28;20491;-81
2021/01/04 04:03:56;;;;;;;24.47;16.37;;;1.50;86.40;;;;;;5043852;28;20459;-82
2021/01/04 04:06:29;;;;;;;22.40;15.30;;;1.50;86.10;;;;;;5038805;28;20498;-82
2021/01/04 04:08:56;;;;;;;25.03;14.83;;;1.40;86.70;;;;;;5038361;28;20456;-82
2021/01/04 04:11:23;;;;;;;21.57;14.13;;;1.50;86.00;;;;;;5040491;28;20547;-84
2021/01/04 04:13:49;;;;;;;21.27;14.40;;;1.40;84.70;;;;;;5054313;28;20481;-84
2021/01/04 04:16:18;;;;;;;18.40;13.37;;;1.50;84.90;;;;;;5048523;28;20460;-85
2021/01/04 04:18:45;;;;;;;20.50;14.23;;;1.50;84.30;;;;;;5037870;28;20455;-83
2021/01/04 04:21:16;;;;;;;21.33;15.23;;;1.50;85.00;;;;;;5035737;28;20487;-82
2021/01/04 04:23:43;;;;;;;22.43;13.90;;;1.50;85.00;;;;;;5038206;28;20447;-84
2021/01/04 04:26:17;;;;;;;19.43;14.17;;;1.60;84.30;;;;;;5050255;28;20443;-86
2021/01/04 04:28:43;;;;;;;19.40;13.00;;;1.50;84.50;;;;;;5046673;28;20550;-83
2021/01/04 04:31:11;;;;;;;19.10;12.33;;;1.50;84.10;;;;;;5047324;28;20447;-84
2021/01/04 04:33:39;;;;;;;21.03;12.77;;;1.50;82.70;;;;;;5041677;28;20978;-83
2021/01/04 04:36:07;;;;;;;22.00;14.37;;;1.60;83.00;;;;;;5039840;28;20452;-85
2021/01/04 04:38:35;;;;;;;22.77;13.80;;;1.40;83.30;;;;;;5021034;28;20460;-83
2021/01/04 04:41:02;;;;;;;22.03;14.17;;;1.40;84.30;;;;;;5038782;28;20468;-84
2021/01/04 04:43:35;;;;;;;21.10;13.50;;;1.40;84.40;;;;;;5039614;28;20472;-85
2021/01/04 04:46:06;;;;;;;20.20;14.80;;;1.40;83.70;;;;;;5038773;28;20456;-82
2021/01/04 04:48:44;;;;;;;22.97;13.83;;;1.50;83.40;;;;;;5040514;28;20467;-82
2021/01/04 04:51:49;;;;;;;20.43;13.77;;;1.40;83.10;;;;;;5037349;28;21004;-83
2021/01/04 04:54:55;;;;;;;19.77;13.60;;;1.40;83.80;;;;;;5034930;28;20606;-82
2021/01/04 04:57:41;;;;;;;22.33;13.43;;;1.40;83.50;;;;;;5028567;28;20574;-84
2021/01/04 05:00:29;;;;;;;22.97;14.10;;;1.40;83.50;;;;;;5037761;28;20557;-82
2021/01/04 05:03:08;;;;;;;22.57;13.83;;;1.50;83.40;;;;;;5020575;28;20472;-82
2021/01/04 05:05:47;;;;;;;21.37;14.20;;;1.40;83.60;;;;;;5040419;28;20447;-84
2021/01/04 05:08:33;;;;;;;21.80;15.23;;;1.50;83.60;;;;;;5021354;28;20459;-83
2021/01/04 05:11:00;;;;;;;20.13;13.27;;;1.40;83.70;;;;;;5035979;28;20453;-84
2021/01/04 05:13:34;;;;;;;18.67;12.60;;;1.40;83.00;;;;;;5034226;28;20488;-82
2021/01/04 05:16:06;;;;;;;23.10;13.83;;;1.50;83.80;;;;;;5042536;28;20454;-84
2021/01/04 05:18:57;;;;;;;20.90;14.20;;;1.40;83.60;;;;;;5048357;28;20788;-82
2021/01/04 05:21:46;;;;;;;20.03;13.63;;;1.40;83.70;;;;;;5026360;28;20474;-77
2021/01/04 05:24:33;;;;;;;23.87;14.47;;;1.50;83.30;;;;;;5024012;28;20556;-79
2021/01/04 05:27:27;;;;;;;23.87;14.47;;;1.50;83.20;;;;;;5023159;28;20528;-81
2021/01/04 05:30:18;;;;;;;23.77;14.47;;;1.40;81.80;;;;;;5042241;28;20451;-83
2021/01/04 05:33:35;;;;;;;20.20;12.50;;;1.40;82.90;;;;;;5049387;28;20455;-78
2021/01/04 05:36:14;;;;;;;21.43;13.63;;;1.50;83.40;;;;;;5032758;28;20921;-79
2021/01/04 05:38:48;;;;;;;20.27;13.67;;;1.60;82.00;;;;;;5032090;28;20454;-77
2021/01/04 05:41:44;;;;;;;19.97;12.50;;;1.50;81.10;;;;;;5032534;28;20466;-78
2021/01/04 05:44:30;;;;;;;21.10;13.20;;;1.50;80.60;;;;;;5007750;28;20455;-82
2021/01/04 05:47:04;;;;;;;17.70;12.60;;;1.50;80.50;;;;;;5031292;28;20487;-79
2021/01/04 05:49:36;;;;;;;18.53;13.13;;;1.40;80.80;;;;;;5030209;28;21025;-78
2021/01/04 05:52:03;;;;;;;20.30;13.47;;;1.50;80.80;;;;;;5027562;28;20435;-79
2021/01/04 05:54:34;;;;;;;21.03;13.97;;;1.40;80.60;;;;;;5028378;28;20527;-79
2021/01/04 05:57:05;;;;;;;22.90;13.80;;;1.30;80.70;;;;;;5028693;28;20938;-78
2021/01/04 05:59:32;;;;;;;26.67;15.23;;;1.40;80.80;;;;;;5025793;28;20479;-81
2021/01/04 06:02:05;;;;;;;22.37;13.40;;;1.40;80.80;;;;;;5024287;28;22242;-79
2021/01/04 06:04:31;;;;;;;21.53;14.53;;;1.40;80.90;;;;;;5021372;28;20491;-80
2021/01/04 06:07:00;;;;;;;18.80;13.27;;;1.40;80.20;;;;;;5024046;28;20451;-83
2021/01/04 06:09:28;;;;;;;21.97;13.97;;;1.40;80.40;;;;;;5024313;28;20989;-79
2021/01/04 06:11:57;;;;;;;24.43;14.33;;;1.40;81.00;;;;;;5022055;28;20523;-80
2021/01/04 06:14:25;;;;;;;18.80;11.77;;;1.40;81.00;;;;;;5031475;28;20523;-80
2021/01/04 06:16:59;;;;;;;19.70;13.97;;;1.40;81.40;;;;;;5025577;28;20900;-79
2021/01/04 06:19:28;;;;;;;20.50;12.70;;;1.40;81.60;;;;;;5027703;28;20487;-78
2021/01/04 06:21:56;;;;;;;20.77;13.37;;;1.40;81.60;;;;;;5023977;28;20938;-84
2021/01/04 06:24:28;;;;;;;21.43;14.30;;;1.50;82.00;;;;;;5026678;28;20537;-78
2021/01/04 06:26:58;;;;;;;22.63;14.50;;;1.50;81.50;;;;;;5025839;28;20458;-78
2021/01/04 06:29:34;;;;;;;19.27;13.70;;;1.40;81.90;;;;;;5027733;28;21398;-82
2021/01/04 06:32:04;;;;;;;18.20;12.70;;;1.40;82.10;;;;;;5022496;28;20471;-82
2021/01/04 06:34:34;;;;;;;21.13;14.40;;;1.30;82.50;;;;;;5026375;28;20531;-83
2021/01/04 06:37:08;;;;;;;28.10;15.50;;;1.30;83.10;;;;;;5026372;28;20451;-79
2021/01/04 06:39:35;;;;;;;22.60;14.67;;;1.40;83.40;;;;;;5031578;28;20979;-82
2021/01/04 06:42:20;;;;;;;19.40;13.13;;;1.60;83.20;;;;;;5028387;28;20564;-81
2021/01/04 06:45:04;;;;;;;18.03;12.80;;;1.50;82.20;;;;;;5029407;28;20546;-81
2021/01/04 06:47:51;;;;;;;19.10;13.27;;;1.50;80.90;;;;;;5029948;28;20954;-83
2021/01/04 06:50:28;;;;;;;20.00;13.27;;;1.40;80.10;;;;;;5032455;28;20495;-77
2021/01/04 06:53:22;;;;;;;21.70;14.30;;;1.40;80.20;;;;;;5033427;28;20878;-81
2021/01/04 06:56:21;;;;;;;17.07;12.07;;;1.50;80.20;;;;;;5029465;28;20461;-79
2021/01/04 06:59:20;;;;;;;22.40;13.47;;;1.40;80.00;;;;;;5030727;28;20673;-78
2021/01/04 07:02:16;;;;;;;19.00;13.07;;;1.40;80.10;;;;;;5030109;28;20507;-79
2021/01/04 07:05:19;;;;;;;20.80;12.67;;;1.40;80.10;;;;;;5029946;28;20471;-77
2021/01/04 07:08:10;;;;;;;20.70;12.57;;;1.30;80.00;;;;;;5025630;28;21115;-78
2021/01/04 07:10:50;;;;;;;20.63;12.63;;;1.30;80.30;;;;;;4985524;28;20444;-77
2021/01/04 07:13:51;;;;;;;21.43;13.23;;;1.30;79.90;;;;;;5028580;28;20562;-79
2021/01/04 07:16:44;;;;;;;21.37;12.70;;;1.30;79.90;;;;;;5021640;28;20506;-83
2021/01/04 07:19:25;;;;;;;18.83;12.57;;;1.30;80.10;;;;;;4999265;28;20459;-78
2021/01/04 07:21:57;;;;;;;18.70;12.70;;;1.30;81.10;;;;;;5032638;28;20478;-79
2021/01/04 07:24:36;;;;;;;20.03;14.40;;;1.30;81.60;;;;;;5028305;28;20514;-79
2021/01/04 07:27:16;;;;;;;18.27;12.77;;;1.20;81.10;;;;;;5030254;28;20451;-82
2021/01/04 07:30:02;;;;;;;20.33;13.50;;;1.30;81.20;;;;;;5026041;28;20451;-80
2021/01/04 07:32:43;;;;;;;14.93;11.37;;;1.30;81.20;;;;;;5027312;28;20798;-78
2021/01/04 07:35:16;;;;;;;20.33;12.70;;;1.40;81.00;;;;;;5029181;28;20455;-80
2021/01/04 07:37:51;;;;;;;17.63;12.90;;;1.30;81.20;;;;;;5027517;28;20523;-79
2021/01/04 07:40:49;;;;;;;17.03;12.33;;;1.20;81.00;;;;;;5028819;28;20510;-81
2021/01/04 07:43:47;;;;;;;16.30;11.80;;;1.30;81.80;;;;;;5025549;28;20866;-78
2021/01/04 07:46:49;;;;;;;16.60;12.50;;;1.40;81.00;;;;;;5030764;28;20468;-78
2021/01/04 07:49:33;;;;;;;18.27;12.80;;;1.50;81.90;;;;;;5034255;28;22811;-83
2021/01/04 07:52:23;;;;;;;19.57;13.50;;;1.40;79.60;;;;;;5035074;28;21030;-80
2021/01/04 07:55:32;;;;;;;16.90;11.67;;;1.50;79.90;;;;;;5027995;28;20459;-80
2021/01/04 07:58:49;;;;;;;16.97;12.17;;;1.40;80.00;;;;;;5034886;28;20462;-78
2021/01/04 08:01:56;;;;;;;16.20;10.97;;;1.40;80.20;;;;;;5029451;28;20558;-80
2021/01/04 08:04:52;;;;;;;18.83;12.30;;;1.40;79.00;;;;;;5013131;28;20914;-77
2021/01/04 08:07:47;;;;;;;19.53;13.00;;;1.50;79.40;;;;;;5031794;28;20464;-82
2021/01/04 08:10:32;;;;;;;16.70;11.83;;;1.40;78.70;;;;;;5035806;28;20790;-82
2021/01/04 08:13:16;;;;;;;16.70;12.47;;;1.60;78.80;;;;;;5035900;28;20505;-77
2021/01/04 08:15:49;;;;;;;15.43;11.63;;;1.60;78.60;;;;;;5032189;28;20451;-77
2021/01/04 08:18:19;;;;;;;17.57;11.53;;;1.50;78.10;;;;;;5035963;28;20457;-78
2021/01/04 08:20:52;;;;;;;18.93;12.23;;;1.50;78.30;;;;;;5033499;28;20472;-76
2021/01/04 08:23:40;;;;;;;17.93;11.83;;;1.60;78.10;;;;;;5035463;28;20568;-77
2021/01/04 08:26:25;;;;;;;14.60;10.57;;;1.50;77.20;;;;;;5034755;28;20504;-79
2021/01/04 08:29:05;;;;;;;18.80;11.90;;;1.50;77.40;;;;;;5032739;28;21012;-79
2021/01/04 08:31:47;;;;;;;17.50;12.33;;;1.50;77.60;;;;;;5037225;28;20502;-84
2021/01/04 08:34:19;;;;;;;17.67;11.77;;;1.50;76.40;;;;;;5041260;28;20540;-84
2021/01/04 08:36:55;;;;;;;15.53;11.63;;;1.60;77.20;;;;;;5045606;28;20487;-86
2021/01/04 08:39:40;;;;;;;15.83;11.63;;;1.50;77.00;;;;;;5056568;28;20462;-86
2021/01/04 08:42:28;;;;;;;15.80;11.20;;;1.60;77.30;;;;;;5043704;28;20479;-87
2021/01/04 08:45:14;;;;;;;16.90;11.23;;;1.60;77.20;;;;;;5040868;28;20486;-85
2021/01/04 08:48:00;;;;;;;17.33;11.63;;;1.60;76.40;;;;;;5042050;28;20484;-83
2021/01/04 08:50:36;;;;;;;16.00;11.20;;;1.60;76.10;;;;;;5040157;28;20536;-85
2021/01/04 08:53:22;;;;;;;14.77;10.43;;;1.60;75.50;;;;;;5025803;28;20455;-85
2021/01/04 08:55:50;;;;;;;15.80;11.23;;;1.50;75.40;;;;;;5020687;28;20452;-81
2021/01/04 08:58:30;;;;;;;19.77;12.40;;;1.40;74.80;;;;;;5032979;28;20590;-83
2021/01/04 09:01:02;;;;;;;15.60;10.53;;;1.50;74.40;;;;;;5031673;28;20502;-84
2021/01/04 09:03:32;;;;;;;14.80;10.83;;;1.50;74.20;;;;;;5026822;28;20453;-80
2021/01/04 09:06:11;;;;;;;12.37;9.90;;;1.40;73.60;;;;;;5031113;28;20459;-80
2021/01/04 09:08:56;;;;;;;17.33;12.70;;;1.50;74.10;;;;;;5028178;28;20812;-82
2021/01/04 09:11:24;;;;;;;17.73;11.37;;;1.50;74.30;;;;;;5032889;28;20464;-80
2021/01/04 09:13:51;;;;;;;15.10;10.97;;;1.70;74.70;;;;;;5029109;28;20489;-81
2021/01/04 09:16:29;;;;;;;15.43;10.87;;;1.70;74.40;;;;;;5033247;28;20457;-81
2021/01/04 09:19:07;;;;;;;13.27;10.30;;;1.90;74.50;;;;;;5037970;28;20472;-80
2021/01/04 09:21:37;;;;;;;13.93;10.07;;;1.70;72.50;;;;;;5039172;28;20477;-81
2021/01/04 09:24:14;;;;;;;11.37;8.50;;;1.70;72.50;;;;;;5028507;28;20463;-80
2021/01/04 09:26:42;;;;;;;14.07;9.60;;;1.70;72.20;;;;;;5025466;28;21027;-78
2021/01/04 09:29:21;;;;;;;11.50;9.70;;;1.70;72.20;;;;;;5024630;28;20532;-83
2021/01/04 09:31:50;;;;;;;13.87;10.27;;;1.60;72.30;;;;;;5022633;28;20487;-79
2021/01/04 09:34:19;;;;;;;11.80;8.97;;;1.60;72.60;;;;;;5032441;28;21134;-82
2021/01/04 09:36:46;;;;;;;13.70;10.07;;;1.70;72.70;;;;;;5024962;28;20986;-79
2021/01/04 09:39:15;;;;;;;13.07;9.63;;;1.70;72.80;;;;;;5026328;28;20994;-79
2021/01/04 09:41:42;;;;;;;11.40;8.17;;;1.60;72.10;;;;;;5027169;28;20513;-80
2021/01/04 09:44:13;;;;;;;11.10;8.20;;;1.60;71.90;;;;;;5025382;28;20446;-78
2021/01/04 09:46:49;;;;;;;11.10;8.53;;;1.60;71.70;;;;;;5026789;28;20554;-80
2021/01/04 09:49:20;;;;;;;11.97;9.33;;;1.50;71.90;;;;;;5029395;28;20456;-81
2021/01/04 09:51:51;;;;;;;13.07;9.80;;;1.50;72.40;;;;;;5027987;28;20950;-78
2021/01/04 09:54:22;;;;;;;12.07;9.10;;;1.50;72.50;;;;;;5034937;28;20448;-79
2021/01/04 09:56:50;;;;;;;13.63;8.73;;;1.60;72.30;;;;;;5036781;28;20462;-78
2021/01/04 09:59:21;;;;;;;10.83;8.77;;;1.60;71.40;;;;;;5036423;28;20448;-80
2021/01/04 10:01:51;;;;;;;10.80;8.40;;;1.50;71.70;;;;;;5032911;28;20567;-77
2021/01/04 10:04:28;;;;;;;13.23;9.27;;;1.70;71.90;;;;;;5033291;28;20454;-77
2021/01/04 10:06:58;;;;;;;12.50;8.70;;;1.70;71.60;;;;;;5026596;28;20479;-78
2021/01/04 10:09:30;;;;;;;11.40;8.70;;;1.70;71.10;;;;;;5032496;28;20444;-78
2021/01/04 10:12:01;;;;;;;13.03;9.23;;;1.80;71.10;;;;;;5027241;28;20455;-78
2021/01/04 10:14:29;;;;;;;15.13;12.40;;;1.80;71.30;;;;;;5030910;28;20990;-80
2021/01/04 10:17:02;;;;;;;10.53;7.50;;;1.90;71.60;;;;;;5029232;28;20459;-77
2021/01/04 10:19:34;;;;;;;13.67;9.30;;;1.90;71.10;;;;;;5027293;28;20457;-80
2021/01/04 10:22:08;;;;;;;13.10;8.73;;;1.70;70.40;;;;;;5027004;28;20508;-79
2021/01/04 10:24:41;;;;;;;12.00;9.27;;;1.70;70.30;;;;;;5031016;28;21334;-79
2021/01/04 10:27:08;;;;;;;12.30;8.57;;;1.90;70.90;;;;;;5026452;28;20459;-78
2021/01/04 10:29:41;;;;;;;14.53;9.50;;;1.90;70.20;;;;;;5028313;28;20819;-80
2021/01/04 10:32:12;;;;;;;8.50;6.67;;;2.10;70.90;;;;;;5031572;28;20498;-78
2021/01/04 10:34:43;;;;;;;12.23;9.03;;;2.20;69.70;;;;;;5034679;28;20453;-78
2021/01/04 10:37:45;;;;;;;17.73;10.80;;;2.20;69.60;;;;;;5029338;28;20526;-78
2021/01/04 10:40:17;;;;;;;19.30;10.67;;;2.30;69.80;;;;;;5021050;28;20451;-79
2021/01/04 10:42:47;;;;;;;12.27;9.33;;;2.30;69.70;;;;;;5028006;28;20464;-78
2021/01/04 10:45:17;;;;;;;12.67;9.90;;;2.30;69.70;;;;;;5031737;28;20924;-79
2021/01/04 10:47:53;;;;;;;11.63;8.77;;;2.30;70.20;;;;;;5030138;28;20449;-79
2021/01/04 10:50:22;;;;;;;14.70;9.90;;;2.40;69.80;;;;;;5033880;28;20875;-77
2021/01/04 10:52:58;;;;;;;14.03;10.00;;;2.40;70.00;;;;;;5032659;28;20507;-79
2021/01/04 10:55:28;;;;;;;12.20;9.70;;;2.40;68.90;;;;;;5043525;28;20454;-82
2021/01/04 10:58:02;;;;;;;11.33;8.03;;;2.40;69.10;;;;;;5053911;28;20451;-85
2021/01/04 11:00:32;;;;;;;11.40;9.90;;;2.50;68.80;;;;;;5052456;28;20480;-87
2021/01/04 11:03:14;;;;;;;11.53;8.30;;;2.50;68.50;;;;;;5038826;28;21003;-78
2021/01/04 11:05:44;;;;;;;11.70;10.00;;;2.50;68.40;;;;;;5033592;28;20445;-77
2021/01/04 11:08:31;;;;;;;12.60;9.87;;;2.50;68.10;;;;;;5031978;28;20453;-79
2021/01/04 11:11:01;;;;;;;12.13;9.53;;;2.50;68.30;;;;;;5031565;28;20453;-81
2021/01/04 11:13:31;;;;;;;12.27;9.43;;;2.40;68.30;;;;;;5031363;28;20476;-76
2021/01/04 11:16:12;;;;;;;10.90;7.77;;;2.40;68.30;;;;;;5030863;28;20452;-77
2021/01/04 11:18:50;;;;;;;12.73;9.13;;;2.40;68.00;;;;;;5025583;28;21069;-80
2021/01/04 11:21:20;;;;;;;13.30;8.63;;;2.50;68.20;;;;;;5029853;28;20461;-80
2021/01/04 11:23:47;;;;;;;12.33;8.93;;;2.50;68.00;;;;;;5028901;28;20829;-76
2021/01/04 11:26:14;;;;;;;12.23;9.30;;;2.50;68.00;;;;;;5033518;28;20478;-77
2021/01/04 11:28:42;;;;;;;11.80;9.17;;;2.60;68.10;;;;;;5043166;28;20452;-82
2021/01/04 11:31:13;;;;;;;14.13;9.73;;;2.60;68.20;;;;;;5041562;28;20458;-81
2021/01/04 11:33:40;;;;;;;12.13;9.80;;;2.60;68.40;;;;;;5039656;28;20453;-83
2021/01/04 11:36:09;;;;;;;14.90;10.53;;;2.70;68.50;;;;;;5039845;28;20453;-86
2021/01/04 11:38:38;;;;;;;11.47;9.27;;;2.70;68.40;;;;;;5036879;28;20468;-83
2021/01/04 11:41:06;;;;;;;12.13;8.70;;;2.50;67.30;;;;;;5039287;28;20524;-83
2021/01/04 11:43:33;;;;;;;10.67;8.20;;;2.50;67.50;;;;;;5039052;28;20460;-84
2021/01/04 11:46:02;;;;;;;12.10;9.83;;;2.50;67.50;;;;;;5037480;28;21089;-86
2021/01/04 11:48:31;;;;;;;12.60;9.60;;;2.50;67.60;;;;;;5036014;28;20545;-86
2021/01/04 11:51:01;;;;;;;13.33;8.80;;;2.50;67.60;;;;;;5012225;28;20941;-84
2021/01/04 11:53:30;;;;;;;14.43;10.70;;;2.50;67.40;;;;;;5038203;28;20447;-87
2021/01/04 11:55:59;;;;;;;13.83;9.57;;;2.60;67.80;;;;;;5037460;28;20464;-85
2021/01/04 11:58:27;;;;;;;13.57;8.97;;;2.70;67.70;;;;;;5033758;28;21371;-84
2021/01/04 12:00:55;;;;;;;12.07;9.10;;;2.80;67.30;;;;;;5035965;28;21050;-84
2021/01/04 12:03:22;;;;;;;13.10;9.67;;;2.80;67.40;;;;;;5042443;28;20486;-87
2021/01/04 12:05:49;;;;;;;14.90;10.17;;;2.80;67.30;;;;;;5043507;28;20554;-83
2021/01/04 12:08:17;;;;;;;11.50;9.30;;;2.80;67.80;;;;;;5024069;28;20453;-85
2021/01/04 12:10:45;;;;;;;13.53;10.73;;;2.80;67.20;;;;;;5043311;28;20465;-83
2021/01/04 12:13:13;;;;;;;17.10;9.63;;;2.80;67.80;;;;;;5042304;28;20476;-84
2021/01/04 12:15:40;;;;;;;16.13;10.30;;;2.90;67.10;;;;;;5035900;28;20465;-85
2021/01/04 12:18:08;;;;;;;12.70;9.70;;;2.90;66.70;;;;;;5037350;28;20461;-85
2021/01/04 12:20:35;;;;;;;13.03;9.33;;;2.70;66.50;;;;;;5037952;28;20459;-87
2021/01/04 12:23:02;;;;;;;12.93;10.00;;;2.60;66.70;;;;;;5016969;28;20484;-87
2021/01/04 12:25:30;;;;;;;13.93;9.27;;;2.60;66.70;;;;;;5017114;28;20462;-84
2021/01/04 12:27:56;;;;;;;15.60;10.00;;;2.70;66.70;;;;;;5037350;28;20445;-78
2021/01/04 12:30:25;;;;;;;12.70;9.40;;;2.60;67.10;;;;;;5035603;28;20963;-79
2021/01/04 12:32:54;;;;;;;12.57;9.50;;;2.70;66.80;;;;;;5034839;28;20449;-78
2021/01/04 12:35:20;;;;;;;13.27;9.70;;;2.60;66.80;;;;;;5034741;28;20496;-81
2021/01/04 12:37:47;;;;;;;11.83;9.47;;;2.60;67.00;;;;;;5036769;28;20461;-78
2021/01/04 12:40:18;;;;;;;11.87;9.27;;;2.70;66.80;;;;;;5032624;28;20566;-79
2021/01/04 12:42:44;;;;;;;13.93;11.10;;;2.50;66.80;;;;;;5032620;28;21339;-77
2021/01/04 12:45:12;;;;;;;13.13;10.23;;;2.70;67.10;;;;;;5030796;28;20447;-80
2021/01/04 12:47:40;;;;;;;13.70;10.00;;;2.70;67.30;;;;;;5033290;28;20464;-79
2021/01/04 12:50:08;;;;;;;13.13;10.13;;;2.80;67.30;;;;;;5040036;28;20928;-78
2021/01/04 12:52:34;;;;;;;15.50;10.77;;;2.60;67.00;;;;;;5031041;28;20489;-78
2021/01/04 12:55:01;;;;;;;19.33;11.07;;;2.70;67.50;;;;;;5028481;28;20503;-79
2021/01/04 12:57:28;;;;;;;19.07;10.60;;;2.70;67.60;;;;;;5031271;28;20457;-79
2021/01/04 12:59:55;;;;;;;18.87;11.80;;;2.40;67.30;;;;;;5027510;28;20526;-77
2021/01/04 13:02:21;;;;;;;15.53;10.80;;;2.40;68.30;;;;;;5026721;28;21070;-79
2021/01/04 13:04:49;;;;;;;14.73;10.97;;;2.50;67.60;;;;;;5030749;28;20467;-78
2021/01/04 13:07:17;;;;;;;14.63;10.23;;;2.50;67.70;;;;;;5037628;28;20453;-79
2021/01/04 13:09:44;;;;;;;16.70;11.80;;;2.40;67.50;;;;;;5039950;28;20803;-79
2021/01/04 13:12:11;;;;;;;14.47;11.10;;;2.50;67.60;;;;;;5027758;28;20926;-79
2021/01/04 13:14:41;;;;;;;14.40;10.47;;;2.40;68.10;;;;;;5031096;28;20455;-77
2021/01/04 13:17:08;;;;;;;13.70;10.50;;;2.20;67.50;;;;;;5030169;28;20477;-78
2021/01/04 13:19:35;;;;;;;13.40;10.63;;;2.30;67.80;;;;;;5029602;28;20449;-78
2021/01/04 13:22:03;;;;;;;17.20;10.70;;;2.30;68.10;;;;;;5031219;28;20474;-78
2021/01/04 13:24:30;;;;;;;15.80;11.40;;;2.20;68.20;;;;;;5034818;28;20444;-78